Terminal Aerodrome Forecast
Issued by NWS Knoxville/Tri Cities, TN

Home | Current Version | Previous Version | Text Only | Print | Product List | Glossary On
Versions: 1 2 3 4 5 6 7 8 9 10 11 12 13 14 15 16 17 18 19 20 21 22 23 24
000
FTUS44 KMRX 230520
TAFTYS
TAF
KTYS 230520Z 2306/2406 24007KT P6SM SCT045 BKN060
     FM231000 26006KT P6SM SCT040 BKN100
     FM231200 29007KT P6SM FEW040 SCT150
     FM231600 32008KT P6SM SCT250
     FM240000 01004KT P6SM SKC=

USA.gov is the U.S. government's official web portal to all federal, state and local government web resources and services.